createdAt,value
2017-03-09T00:00:32.829Z,0
2017-03-09T00:01:32.585Z,0
2017-03-09T00:02:32.480Z,0
2017-03-09T00:03:32.849Z,0
2017-03-09T00:04:32.842Z,0
2017-03-09T00:05:32.868Z,0
2017-03-09T00:06:32.879Z,0
2017-03-09T00:07:32.876Z,0
2017-03-09T00:08:32.901Z,0
2017-03-09T00:09:32.540Z,0
2017-03-09T00:10:32.954Z,0
2017-03-09T00:11:32.588Z,0
2017-03-09T00:12:32.972Z,0
2017-03-09T00:13:32.979Z,0
2017-03-09T00:14:33.004Z,0
2017-03-09T00:15:33.016Z,0
2017-03-09T00:16:33.029Z,0
2017-03-09T00:17:33.037Z,0
2017-03-09T00:18:33.051Z,0
2017-03-09T00:19:32.691Z,0
2017-03-09T00:20:32.696Z,0
2017-03-09T00:21:33.085Z,0
2017-03-09T00:22:33.119Z,0
2017-03-09T00:23:33.145Z,0
2017-03-09T00:24:32.745Z,0
2017-03-09T00:25:33.200Z,0
2017-03-09T00:26:33.168Z,0
2017-03-09T00:27:32.804Z,0
2017-03-09T00:28:33.212Z,0
2017-03-09T00:29:33.213Z,0
2017-03-09T00:30:33.247Z,0
2017-03-09T00:31:33.249Z,0
2017-03-09T00:32:32.883Z,0
2017-03-09T00:33:32.891Z,0
2017-03-09T00:34:32.913Z,0
2017-03-09T00:35:33.295Z,0
2017-03-09T00:36:33.331Z,0
2017-03-09T00:37:32.933Z,0
2017-03-09T00:38:32.553Z,0
2017-03-09T00:39:33.373Z,0
2017-03-09T00:40:33.377Z,0
2017-03-09T00:41:33.395Z,0
2017-03-09T00:42:33.396Z,0
2017-03-09T00:43:33.437Z,0
2017-03-09T00:44:33.458Z,0
2017-03-09T00:45:33.476Z,0
2017-03-09T00:46:33.450Z,0
2017-03-09T00:47:33.475Z,0
2017-03-09T00:48:33.517Z,0
2017-03-09T00:49:33.527Z,0
2017-03-09T00:50:33.515Z,0
2017-03-09T00:51:33.129Z,0
2017-03-09T00:52:33.555Z,0
2017-03-09T00:53:33.570Z,0
2017-03-09T00:54:33.589Z,0
2017-03-09T00:55:33.614Z,0
2017-03-09T00:56:33.612Z,0
2017-03-09T00:57:33.618Z,0
2017-03-09T00:58:33.248Z,0
2017-03-09T00:59:33.656Z,0
2017-03-09T01:00:33.702Z,0
2017-03-09T01:01:33.698Z,0
2017-03-09T01:02:33.703Z,0
2017-03-09T01:03:33.741Z,0
2017-03-09T01:04:33.761Z,0
2017-03-09T01:05:33.766Z,0
2017-03-09T01:06:33.802Z,0
2017-03-09T01:07:33.778Z,0
2017-03-09T01:08:33.396Z,0
2017-03-09T01:09:33.791Z,0
2017-03-09T01:10:33.824Z,0
2017-03-09T01:11:33.826Z,0
2017-03-09T01:12:33.857Z,0
2017-03-09T01:13:33.856Z,0
2017-03-09T01:14:33.518Z,0
2017-03-09T01:15:33.881Z,0
2017-03-09T01:16:33.512Z,0
2017-03-09T01:17:33.929Z,0
2017-03-09T01:18:33.959Z,0
2017-03-09T01:19:33.950Z,0
2017-03-09T01:20:33.972Z,0
2017-03-09T01:21:33.986Z,0
2017-03-09T01:22:34.004Z,0
2017-03-09T01:23:34.031Z,0
2017-03-09T01:24:34.012Z,0
2017-03-09T01:25:33.644Z,0
2017-03-09T01:26:33.675Z,0
2017-03-09T01:27:33.681Z,0
2017-03-09T01:28:34.076Z,0
2017-03-09T01:29:33.695Z,0
2017-03-09T01:30:34.106Z,0
2017-03-09T01:31:34.255Z,0
2017-03-09T01:32:34.265Z,0
2017-03-09T01:33:33.770Z,0
2017-03-09T01:34:34.283Z,0
2017-03-09T01:35:34.281Z,0
2017-03-09T01:36:34.289Z,0
2017-03-09T01:37:34.323Z,0
2017-03-09T01:38:34.333Z,0
2017-03-09T01:39:34.339Z,0
2017-03-09T01:40:34.339Z,0
2017-03-09T01:41:33.955Z,0
2017-03-09T01:42:34.357Z,0
2017-03-09T01:43:33.898Z,0
2017-03-09T01:44:34.398Z,0
2017-03-09T01:45:34.431Z,0
2017-03-09T01:46:33.999Z,0
2017-03-09T01:47:34.451Z,0
2017-03-09T01:48:34.460Z,0
2017-03-09T01:49:33.992Z,0
2017-03-09T01:50:34.467Z,0
2017-03-09T01:51:34.475Z,0
2017-03-09T01:52:34.483Z,0
2017-03-09T01:53:34.492Z,0
2017-03-09T01:54:34.502Z,0
2017-03-09T01:55:34.501Z,0
2017-03-09T01:56:34.625Z,0
2017-03-09T01:57:34.620Z,0
2017-03-09T01:58:34.633Z,0
2017-03-09T01:59:34.642Z,0
2017-03-09T02:00:34.643Z,0
2017-03-09T02:01:34.281Z,0
2017-03-09T02:02:34.288Z,0
2017-03-09T02:03:34.680Z,0
2017-03-09T02:04:34.832Z,0
2017-03-09T02:05:34.840Z,0
2017-03-09T02:06:34.847Z,0
2017-03-09T02:07:34.857Z,0
2017-03-09T02:08:34.866Z,0
2017-03-09T02:09:34.367Z,0
2017-03-09T02:10:34.780Z,0
2017-03-09T02:11:34.808Z,0
2017-03-09T02:12:34.932Z,0
2017-03-09T02:13:34.939Z,0
2017-03-09T02:14:34.939Z,0
2017-03-09T02:15:34.953Z,0
2017-03-09T02:16:34.962Z,0
2017-03-09T02:17:34.972Z,0
2017-03-09T02:18:34.436Z,0
2017-03-09T02:19:34.879Z,0
2017-03-09T02:20:34.854Z,0
2017-03-09T02:21:34.862Z,0
2017-03-09T02:22:34.496Z,0
2017-03-09T02:23:34.888Z,0
2017-03-09T02:24:34.502Z,0
2017-03-09T02:25:34.533Z,0
2017-03-09T02:26:34.940Z,0
2017-03-09T02:27:34.947Z,0
2017-03-09T02:28:34.954Z,0
2017-03-09T02:29:34.986Z,0
2017-03-09T02:30:35.000Z,0
2017-03-09T02:31:35.017Z,0
2017-03-09T02:32:35.044Z,0
2017-03-09T02:33:35.039Z,0
2017-03-09T02:34:35.178Z,0
2017-03-09T02:35:35.177Z,0
2017-03-09T02:36:35.185Z,0
2017-03-09T02:37:35.193Z,0
2017-03-09T02:38:35.226Z,0
2017-03-09T02:39:35.256Z,0
2017-03-09T02:40:34.840Z,0
2017-03-09T02:41:34.745Z,0
2017-03-09T02:42:35.251Z,0
2017-03-09T02:43:35.259Z,0
2017-03-09T02:44:34.806Z,0
2017-03-09T02:45:35.278Z,0
2017-03-09T02:46:34.853Z,0
2017-03-09T02:47:35.344Z,0
2017-03-09T02:48:34.916Z,0
2017-03-09T02:49:35.362Z,0
2017-03-09T02:50:35.367Z,0
2017-03-09T02:51:35.368Z,0
2017-03-09T02:52:35.377Z,0
2017-03-09T02:53:35.388Z,0
2017-03-09T02:54:35.395Z,0
2017-03-09T02:55:35.405Z,0
2017-03-09T02:56:34.976Z,0
2017-03-09T02:57:35.014Z,0
2017-03-09T02:58:35.421Z,0
2017-03-09T02:59:35.010Z,0
2017-03-09T03:00:35.546Z,0
2017-03-09T03:01:35.554Z,0
2017-03-09T03:02:35.698Z,0
2017-03-09T03:03:35.563Z,0
2017-03-09T03:04:35.203Z,0
2017-03-09T03:05:35.736Z,0
2017-03-09T03:06:35.744Z,0
2017-03-09T03:07:35.223Z,0
2017-03-09T03:08:35.760Z,0
2017-03-09T03:09:35.238Z,0
2017-03-09T03:10:35.773Z,0
2017-03-09T03:11:35.388Z,0
2017-03-09T03:12:35.848Z,0
2017-03-09T03:13:35.322Z,0
2017-03-09T03:14:35.833Z,0
2017-03-09T03:15:35.842Z,0
2017-03-09T03:16:35.851Z,0
2017-03-09T03:17:35.350Z,0
2017-03-09T03:18:35.875Z,0
2017-03-09T03:19:35.883Z,0
2017-03-09T03:20:35.883Z,0
2017-03-09T03:21:35.889Z,0
2017-03-09T03:22:35.900Z,0
2017-03-09T03:23:35.512Z,0
2017-03-09T03:24:35.916Z,0
2017-03-09T03:25:35.890Z,0
2017-03-09T03:26:35.523Z,0
2017-03-09T03:27:35.900Z,0
2017-03-09T03:28:35.907Z,0
2017-03-09T03:29:35.935Z,0
2017-03-09T03:30:35.937Z,0
2017-03-09T03:31:35.924Z,0
2017-03-09T03:32:35.935Z,0
2017-03-09T03:33:36.019Z,0
2017-03-09T03:34:35.650Z,0
2017-03-09T03:35:36.052Z,0
2017-03-09T03:36:35.958Z,0
2017-03-09T03:37:35.983Z,0
2017-03-09T03:38:35.976Z,0
2017-03-09T03:39:35.999Z,0
2017-03-09T03:40:36.178Z,0
2017-03-09T03:41:36.047Z,0
2017-03-09T03:42:36.045Z,0
2017-03-09T03:43:35.676Z,0
2017-03-09T03:44:36.068Z,0
2017-03-09T03:45:36.087Z,0
2017-03-09T03:46:36.109Z,0
2017-03-09T03:47:35.912Z,0
2017-03-09T03:48:35.876Z,0
2017-03-09T03:49:36.166Z,0
2017-03-09T03:50:36.165Z,0
2017-03-09T03:51:36.164Z,0
2017-03-09T03:52:36.205Z,0
2017-03-09T03:53:36.206Z,0
2017-03-09T03:54:36.225Z,0
2017-03-09T03:55:36.240Z,0
2017-03-09T03:56:35.861Z,0
2017-03-09T03:57:36.258Z,0
2017-03-09T03:58:36.296Z,0
2017-03-09T03:59:36.306Z,0
2017-03-09T04:00:35.905Z,0
2017-03-09T04:01:36.323Z,0
2017-03-09T04:02:35.930Z,0
2017-03-09T04:03:36.372Z,0
2017-03-09T04:04:36.365Z,0
2017-03-09T04:05:36.373Z,0
2017-03-09T04:06:36.639Z,0
2017-03-09T04:07:36.484Z,0
2017-03-09T04:08:36.636Z,0
2017-03-09T04:09:36.651Z,0
2017-03-09T04:10:36.660Z,0
2017-03-09T04:11:36.121Z,0
2017-03-09T04:12:36.667Z,0
2017-03-09T04:13:36.677Z,0
2017-03-09T04:14:36.686Z,0
2017-03-09T04:15:36.693Z,0
2017-03-09T04:16:36.663Z,0
2017-03-09T04:17:36.677Z,0
2017-03-09T04:18:36.805Z,0
2017-03-09T04:19:36.283Z,0
2017-03-09T04:20:36.687Z,0
2017-03-09T04:21:36.300Z,0
2017-03-09T04:22:36.846Z,0
2017-03-09T04:23:36.745Z,0
2017-03-09T04:24:36.782Z,0
2017-03-09T04:25:36.792Z,0
2017-03-09T04:26:36.893Z,0
2017-03-09T04:27:36.799Z,0
2017-03-09T04:28:36.809Z,0
2017-03-09T04:29:36.818Z,0
2017-03-09T04:30:36.829Z,0
2017-03-09T04:31:36.833Z,0
2017-03-09T04:32:36.798Z,0
2017-03-09T04:33:36.206Z,0
2017-03-09T04:34:36.819Z,0
2017-03-09T04:35:36.822Z,0
2017-03-09T04:36:36.935Z,0
2017-03-09T04:37:36.628Z,0
2017-03-09T04:38:36.914Z,0
2017-03-09T04:39:36.881Z,0
2017-03-09T04:40:36.925Z,0
2017-03-09T04:41:36.619Z,0
2017-03-09T04:42:36.600Z,0
2017-03-09T04:43:36.670Z,0
2017-03-09T04:44:36.971Z,0
2017-03-09T04:45:36.964Z,0
2017-03-09T04:46:36.987Z,0
2017-03-09T04:47:37.013Z,0
2017-03-09T04:48:37.015Z,0
2017-03-09T04:49:37.049Z,0
2017-03-09T04:50:37.049Z,0
2017-03-09T04:51:37.054Z,0
2017-03-09T04:52:37.080Z,0
2017-03-09T04:53:37.089Z,0
2017-03-09T04:54:37.083Z,0
2017-03-09T04:55:37.112Z,0
2017-03-09T04:56:37.148Z,0
2017-03-09T04:57:36.836Z,0
2017-03-09T04:58:37.194Z,0
2017-03-09T04:59:37.185Z,0
2017-03-09T05:00:37.206Z,0
2017-03-09T05:01:37.213Z,0
2017-03-09T05:02:37.231Z,0
2017-03-09T05:03:37.448Z,0
2017-03-09T05:04:36.838Z,0
2017-03-09T05:05:37.263Z,0
2017-03-09T05:06:37.283Z,0
2017-03-09T05:07:37.316Z,0
2017-03-09T05:08:37.329Z,0
2017-03-09T05:09:37.324Z,0
2017-03-09T05:10:37.367Z,0
2017-03-09T05:11:37.354Z,0
2017-03-09T05:12:36.984Z,0
2017-03-09T05:13:36.966Z,0
2017-03-09T05:14:37.395Z,0
2017-03-09T05:15:37.512Z,0
2017-03-09T05:16:37.518Z,0
2017-03-09T05:17:37.035Z,0
2017-03-09T05:18:37.575Z,0
2017-03-09T05:19:37.563Z,0
2017-03-09T05:20:37.589Z,0
2017-03-09T05:21:37.580Z,0
2017-03-09T05:22:37.587Z,0
2017-03-09T05:23:37.585Z,0
2017-03-09T05:24:37.599Z,0
2017-03-09T05:25:37.612Z,0
2017-03-09T05:26:37.184Z,0
2017-03-09T05:27:37.614Z,0
2017-03-09T05:28:37.193Z,0
2017-03-09T05:29:37.709Z,0
2017-03-09T05:30:37.226Z,0
2017-03-09T05:31:37.243Z,0
2017-03-09T05:32:37.245Z,0
2017-03-09T05:33:37.715Z,0
2017-03-09T05:34:37.740Z,0
2017-03-09T05:35:37.324Z,0
2017-03-09T05:36:37.332Z,0
2017-03-09T05:37:37.348Z,0
2017-03-09T05:38:37.811Z,0
2017-03-09T05:39:37.857Z,0
2017-03-09T05:40:37.912Z,0
2017-03-09T05:41:36.992Z,0
2017-03-09T05:42:37.890Z,0
2017-03-09T05:43:37.035Z,0
2017-03-09T05:44:38.053Z,0
2017-03-09T05:45:38.065Z,0
2017-03-09T05:46:38.067Z,0
2017-03-09T05:47:38.057Z,0
2017-03-09T05:48:38.084Z,0
2017-03-09T05:49:37.556Z,0
2017-03-09T05:50:37.514Z,0
2017-03-09T05:51:37.646Z,0
2017-03-09T05:52:38.069Z,0
2017-03-09T05:53:38.084Z,0
2017-03-09T05:54:38.097Z,0
2017-03-09T05:55:38.189Z,0
2017-03-09T05:56:37.656Z,0
2017-03-09T05:57:38.181Z,0
2017-03-09T05:58:38.193Z,0
2017-03-09T05:59:38.203Z,0
2017-03-09T06:00:37.804Z,0
2017-03-09T06:01:38.210Z,0
2017-03-09T06:02:38.214Z,0
2017-03-09T06:03:37.779Z,0
2017-03-09T06:04:38.222Z,0
2017-03-09T06:05:38.236Z,0
2017-03-09T06:06:37.859Z,0
2017-03-09T06:07:38.246Z,0
2017-03-09T06:08:38.213Z,0
2017-03-09T06:09:38.221Z,0
2017-03-09T06:10:38.284Z,0
2017-03-09T06:11:38.320Z,0
2017-03-09T06:12:37.558Z,0
2017-03-09T06:13:38.255Z,0
2017-03-09T06:14:38.266Z,0
2017-03-09T06:15:38.288Z,0
2017-03-09T06:16:37.890Z,0
2017-03-09T06:17:38.070Z,0
2017-03-09T06:18:38.345Z,0
2017-03-09T06:19:38.367Z,0
2017-03-09T06:20:38.356Z,0
2017-03-09T06:21:38.357Z,0
2017-03-09T06:22:38.151Z,0
2017-03-09T06:23:38.416Z,0
2017-03-09T06:24:38.425Z,5
2017-03-09T06:25:38.442Z,0
2017-03-09T06:26:38.041Z,0
2017-03-09T06:27:38.452Z,5
2017-03-09T06:28:38.471Z,5
2017-03-09T06:29:38.483Z,5
2017-03-09T06:30:37.700Z,5
2017-03-09T06:31:38.627Z,5
2017-03-09T06:32:38.527Z,5
2017-03-09T06:33:38.157Z,5
2017-03-09T06:34:37.787Z,5
2017-03-09T06:35:37.898Z,5
2017-03-09T06:36:38.700Z,5
2017-03-09T06:37:38.730Z,5
2017-03-09T06:38:38.668Z,5
2017-03-09T06:39:38.666Z,5
2017-03-09T06:40:38.638Z,5
2017-03-09T06:41:38.776Z,5
2017-03-09T06:42:38.686Z,5
2017-03-09T06:43:38.370Z,5
2017-03-09T06:44:38.308Z,5
2017-03-09T06:45:38.347Z,5
2017-03-09T06:46:38.753Z,5
2017-03-09T06:47:38.366Z,5
2017-03-09T06:48:38.791Z,5
2017-03-09T06:49:38.791Z,5
2017-03-09T06:50:38.428Z,5
2017-03-09T06:51:38.412Z,5
2017-03-09T06:52:38.105Z,5
2017-03-09T06:53:38.847Z,5
2017-03-09T06:54:38.857Z,5
2017-03-09T06:55:38.156Z,5
2017-03-09T06:56:38.870Z,5
2017-03-09T06:57:38.163Z,5
2017-03-09T06:58:38.906Z,5
2017-03-09T06:59:38.937Z,5
2017-03-09T07:00:38.951Z,5
2017-03-09T07:01:38.946Z,5
2017-03-09T07:02:38.958Z,10
2017-03-09T07:03:38.236Z,10
2017-03-09T07:04:39.001Z,10
2017-03-09T07:05:38.616Z,10
2017-03-09T07:06:39.031Z,10
2017-03-09T07:07:39.031Z,10
2017-03-09T07:08:39.308Z,10
2017-03-09T07:09:39.074Z,10
2017-03-09T07:10:38.696Z,10
2017-03-09T07:11:38.375Z,5
2017-03-09T07:12:38.746Z,10
2017-03-09T07:13:39.136Z,10
2017-03-09T07:14:39.151Z,5
2017-03-09T07:15:39.169Z,5
2017-03-09T07:16:39.166Z,5
2017-03-09T07:17:39.241Z,5
2017-03-09T07:18:39.199Z,5
2017-03-09T07:19:39.216Z,10
2017-03-09T07:20:39.252Z,10
2017-03-09T07:21:39.259Z,10
2017-03-09T07:22:39.259Z,10
2017-03-09T07:23:39.279Z,10
2017-03-09T07:24:39.290Z,10
2017-03-09T07:25:39.319Z,10
2017-03-09T07:26:39.344Z,10
2017-03-09T07:27:39.373Z,15
2017-03-09T07:28:38.951Z,10
2017-03-09T07:29:39.385Z,10
2017-03-09T07:30:39.384Z,10
2017-03-09T07:31:39.006Z,15
2017-03-09T07:32:39.428Z,15
2017-03-09T07:33:39.434Z,10
2017-03-09T07:34:39.457Z,15
2017-03-09T07:35:39.471Z,15
2017-03-09T07:36:39.478Z,15
2017-03-09T07:37:39.492Z,15
2017-03-09T07:38:39.504Z,15
2017-03-09T07:39:39.119Z,15
2017-03-09T07:40:39.556Z,15
2017-03-09T07:41:39.559Z,15
2017-03-09T07:42:39.575Z,10
2017-03-09T07:43:39.573Z,5
2017-03-09T07:44:39.596Z,5
2017-03-09T07:45:39.616Z,5
2017-03-09T07:46:39.628Z,5
2017-03-09T07:47:39.255Z,10
2017-03-09T07:48:39.646Z,10
2017-03-09T07:49:39.675Z,5
2017-03-09T07:50:39.007Z,5
2017-03-09T07:51:39.297Z,5
2017-03-09T07:52:39.737Z,5
2017-03-09T07:53:39.741Z,5
2017-03-09T07:54:39.449Z,5
2017-03-09T07:55:39.478Z,10
2017-03-09T07:56:39.777Z,10
2017-03-09T07:57:39.392Z,10
2017-03-09T07:58:39.809Z,10
2017-03-09T07:59:39.888Z,10
2017-03-09T08:00:39.861Z,10
2017-03-09T08:01:39.463Z,10
2017-03-09T08:02:39.938Z,10
2017-03-09T08:03:39.879Z,15
2017-03-09T08:04:40.003Z,15
2017-03-09T08:05:39.129Z,10
2017-03-09T08:06:39.521Z,10
2017-03-09T08:07:40.079Z,10
2017-03-09T08:08:40.104Z,10
2017-03-09T08:09:40.101Z,10
2017-03-09T08:10:40.131Z,20
2017-03-09T08:11:40.192Z,20
2017-03-09T08:12:40.169Z,20
2017-03-09T08:13:40.142Z,25
2017-03-09T08:14:40.155Z,25
2017-03-09T08:15:40.070Z,20
2017-03-09T08:16:40.092Z,15
2017-03-09T08:17:40.087Z,15
2017-03-09T08:18:40.108Z,15
2017-03-09T08:19:40.262Z,15
2017-03-09T08:20:40.131Z,15
2017-03-09T08:21:40.169Z,15
2017-03-09T08:22:40.217Z,20
2017-03-09T08:23:39.933Z,20
2017-03-09T08:24:40.188Z,20
2017-03-09T08:25:40.228Z,15
2017-03-09T08:26:40.246Z,15
2017-03-09T08:27:40.239Z,20
2017-03-09T08:28:40.265Z,20
2017-03-09T08:29:40.277Z,20
2017-03-09T08:30:40.312Z,20
2017-03-09T08:31:40.335Z,15
2017-03-09T08:32:40.323Z,15
2017-03-09T08:33:40.344Z,15
2017-03-09T08:34:40.372Z,15
2017-03-09T08:35:40.375Z,15
2017-03-09T08:36:40.897Z,15
2017-03-09T08:39:40.068Z,15
2017-03-09T08:40:40.449Z,20
2017-03-09T08:41:40.735Z,20
2017-03-09T08:42:39.755Z,20
2017-03-09T08:43:40.594Z,20
2017-03-09T08:44:40.495Z,20
2017-03-09T08:45:40.135Z,15
2017-03-09T08:46:40.177Z,20
2017-03-09T08:47:40.553Z,20
2017-03-09T08:48:40.579Z,20
2017-03-09T08:49:40.595Z,25
2017-03-09T08:50:40.592Z,20
2017-03-09T08:51:40.667Z,20
2017-03-09T08:52:40.751Z,20
2017-03-09T08:53:40.638Z,15
2017-03-09T08:54:40.266Z,15
2017-03-09T08:55:40.786Z,20
2017-03-09T08:56:39.997Z,20
2017-03-09T08:57:40.505Z,15
2017-03-09T08:58:40.862Z,20
2017-03-09T08:59:40.533Z,25
2017-03-09T09:00:41.011Z,30
2017-03-09T09:01:40.969Z,25
2017-03-09T09:02:40.965Z,20
2017-03-09T09:03:40.959Z,15
2017-03-09T09:04:40.967Z,15
2017-03-09T09:05:40.940Z,20
2017-03-09T09:06:40.684Z,20
2017-03-09T09:07:40.692Z,20
2017-03-09T09:08:41.060Z,30
2017-03-09T09:09:41.078Z,30
2017-03-09T09:10:41.225Z,25
2017-03-09T09:11:41.176Z,20
2017-03-09T09:12:40.796Z,25
2017-03-09T09:13:41.083Z,25
2017-03-09T09:14:41.085Z,20
2017-03-09T09:15:41.119Z,20
2017-03-09T09:16:41.104Z,20
2017-03-09T09:17:40.825Z,25
2017-03-09T09:18:41.112Z,25
2017-03-09T09:19:40.275Z,25
2017-03-09T09:20:40.687Z,20
2017-03-09T09:21:41.199Z,20
2017-03-09T09:22:41.186Z,20
2017-03-09T09:23:41.247Z,20
2017-03-09T09:24:41.297Z,20
2017-03-09T09:25:41.158Z,25
2017-03-09T09:26:41.366Z,25
2017-03-09T09:27:40.974Z,25
2017-03-09T09:28:40.920Z,30
2017-03-09T09:29:41.220Z,25
2017-03-09T09:30:41.400Z,25
2017-03-09T09:31:41.013Z,20
2017-03-09T09:32:41.010Z,20
2017-03-09T09:33:40.914Z,20
2017-03-09T09:34:41.428Z,20
2017-03-09T09:35:41.339Z,20
2017-03-09T09:36:41.327Z,20
2017-03-09T09:37:41.365Z,20
2017-03-09T09:38:41.560Z,20
2017-03-09T09:39:41.009Z,20
2017-03-09T09:40:41.527Z,20
2017-03-09T09:41:41.416Z,20
2017-03-09T09:42:41.448Z,20
2017-03-09T09:43:41.048Z,20
2017-03-09T09:44:41.469Z,20
2017-03-09T09:45:41.540Z,20
2017-03-09T09:46:41.497Z,20
2017-03-09T09:47:41.128Z,20
2017-03-09T09:48:41.538Z,15
2017-03-09T09:49:41.564Z,20
2017-03-09T09:50:41.550Z,20
2017-03-09T09:51:41.212Z,15
2017-03-09T09:52:41.598Z,15
2017-03-09T09:53:41.598Z,20
2017-03-09T09:54:40.848Z,20
2017-03-09T09:55:41.254Z,20
2017-03-09T09:56:41.668Z,20
2017-03-09T09:57:41.656Z,20
2017-03-09T09:58:41.698Z,20
2017-03-09T09:59:41.331Z,25
2017-03-09T10:00:41.734Z,25
2017-03-09T10:01:41.762Z,25
2017-03-09T10:02:41.961Z,25
2017-03-09T10:03:41.764Z,25
2017-03-09T10:04:41.785Z,25
2017-03-09T10:05:41.818Z,25
2017-03-09T10:06:41.423Z,25
2017-03-09T10:07:41.437Z,25
2017-03-09T10:08:41.877Z,30
2017-03-09T10:09:41.902Z,30
2017-03-09T10:10:41.889Z,30
2017-03-09T10:11:41.920Z,30
2017-03-09T10:12:41.924Z,30
2017-03-09T10:13:41.944Z,30
2017-03-09T10:14:41.978Z,30
2017-03-09T10:15:42.002Z,30
2017-03-09T10:16:42.083Z,30
2017-03-09T10:17:42.004Z,30
2017-03-09T10:18:42.029Z,30
2017-03-09T10:19:42.043Z,30
2017-03-09T10:20:41.670Z,30
2017-03-09T10:21:41.876Z,30
2017-03-09T10:22:42.086Z,30
2017-03-09T10:23:41.876Z,30
2017-03-09T10:24:42.125Z,30
2017-03-09T10:25:42.125Z,30
2017-03-09T10:26:42.161Z,30
2017-03-09T10:27:41.981Z,30
2017-03-09T10:28:41.859Z,30
2017-03-09T10:29:42.388Z,30
2017-03-09T10:30:42.424Z,30
2017-03-09T10:31:42.417Z,25
2017-03-09T10:32:42.420Z,25
2017-03-09T10:33:42.406Z,25
2017-03-09T10:34:41.646Z,25
2017-03-09T10:35:42.497Z,30
2017-03-09T10:36:42.430Z,30
2017-03-09T10:37:41.655Z,25
2017-03-09T10:38:42.532Z,30
2017-03-09T10:39:42.457Z,30
2017-03-09T10:40:42.129Z,30
2017-03-09T10:41:42.437Z,30
2017-03-09T10:42:42.432Z,30
2017-03-09T10:43:42.451Z,30
2017-03-09T10:44:42.676Z,30
2017-03-09T10:45:42.126Z,30
2017-03-09T10:46:42.534Z,30
2017-03-09T10:47:42.274Z,30
2017-03-09T10:48:41.895Z,30
2017-03-09T10:49:42.287Z,30
2017-03-09T10:50:41.996Z,30
2017-03-09T10:51:42.576Z,30
2017-03-09T10:52:41.980Z,30
2017-03-09T10:53:41.998Z,30
2017-03-09T10:54:42.659Z,30
2017-03-09T10:55:42.397Z,35
2017-03-09T10:56:42.299Z,35
2017-03-09T10:57:42.695Z,35
2017-03-09T10:58:42.704Z,35
2017-03-09T10:59:42.809Z,30
2017-03-09T11:00:42.397Z,35
2017-03-09T11:01:42.422Z,30
2017-03-09T11:02:42.769Z,30
2017-03-09T11:03:42.408Z,30
2017-03-09T11:04:42.448Z,30
2017-03-09T11:05:42.479Z,35
2017-03-09T11:06:42.462Z,30
2017-03-09T11:07:42.480Z,30
2017-03-09T11:08:42.492Z,30
2017-03-09T11:09:42.510Z,30
2017-03-09T11:10:43.009Z,30
2017-03-09T11:11:43.027Z,30
2017-03-09T11:12:42.174Z,25
2017-03-09T11:13:42.275Z,25
2017-03-09T11:14:41.811Z,25
2017-03-09T11:15:42.613Z,25
2017-03-09T11:16:43.027Z,25
2017-03-09T11:17:43.041Z,25
2017-03-09T11:18:43.063Z,25
2017-03-09T11:19:43.103Z,25
2017-03-09T11:20:42.297Z,25
2017-03-09T11:21:43.098Z,30
2017-03-09T11:22:42.356Z,30
2017-03-09T11:23:42.757Z,30
2017-03-09T11:24:43.168Z,30
2017-03-09T11:25:43.182Z,30
2017-03-09T11:26:43.198Z,30
2017-03-09T11:27:43.223Z,30
2017-03-09T11:28:43.234Z,25
2017-03-09T11:29:43.262Z,25
2017-03-09T11:30:43.266Z,25
2017-03-09T11:31:42.893Z,25
2017-03-09T11:32:43.324Z,25
2017-03-09T11:33:43.346Z,20
2017-03-09T11:34:42.947Z,20
2017-03-09T11:35:42.988Z,25
2017-03-09T11:36:43.398Z,25
2017-03-09T11:37:43.499Z,25
2017-03-09T11:38:43.442Z,20
2017-03-09T11:39:43.527Z,20
2017-03-09T11:40:43.163Z,20
2017-03-09T11:41:43.573Z,15
2017-03-09T11:42:43.087Z,15
2017-03-09T11:43:43.506Z,15
2017-03-09T11:44:43.526Z,15
2017-03-09T11:45:43.278Z,20
2017-03-09T11:46:43.718Z,20
2017-03-09T11:47:43.571Z,25
2017-03-09T11:48:43.632Z,25
2017-03-09T11:49:43.635Z,25
2017-03-09T11:50:43.662Z,25
2017-03-09T11:51:43.307Z,25
2017-03-09T11:52:43.666Z,25
2017-03-09T11:53:43.916Z,30
2017-03-09T11:54:43.716Z,30
2017-03-09T11:55:43.345Z,30
2017-03-09T11:56:43.761Z,35
2017-03-09T11:57:43.770Z,35
2017-03-09T11:58:43.787Z,30
2017-03-09T11:59:43.808Z,30
2017-03-09T12:00:45.284Z,30
2017-03-09T12:01:44.053Z,30
2017-03-09T12:02:43.812Z,30
2017-03-09T12:03:43.522Z,35
2017-03-09T12:04:43.917Z,35
2017-03-09T12:05:43.917Z,35
2017-03-09T12:06:44.023Z,35
2017-03-09T12:07:43.960Z,40
2017-03-09T12:08:43.961Z,40
2017-03-09T12:09:43.998Z,40
2017-03-09T12:10:43.608Z,40
2017-03-09T12:11:44.034Z,35
2017-03-09T12:12:44.055Z,35
2017-03-09T12:13:44.063Z,35
2017-03-09T12:14:44.111Z,35
2017-03-09T12:15:43.816Z,30
2017-03-09T12:16:44.141Z,30
2017-03-09T12:17:44.155Z,30
2017-03-09T12:18:44.159Z,25
2017-03-09T12:19:44.192Z,25
2017-03-09T12:20:44.215Z,25
2017-03-09T12:21:44.237Z,30
2017-03-09T12:22:44.240Z,30
2017-03-09T12:23:44.257Z,30
2017-03-09T12:24:44.287Z,30
2017-03-09T12:25:43.889Z,30
2017-03-09T12:26:44.334Z,30
2017-03-09T12:27:44.333Z,30
2017-03-09T12:28:44.344Z,30
2017-03-09T12:29:43.967Z,35
2017-03-09T12:30:44.396Z,35
2017-03-09T12:31:44.421Z,40
2017-03-09T12:32:44.453Z,40
2017-03-09T12:33:44.440Z,45
2017-03-09T12:34:44.455Z,45
2017-03-09T12:35:44.475Z,45
2017-03-09T12:36:44.528Z,45
2017-03-09T12:37:44.542Z,45
2017-03-09T12:38:44.537Z,45
2017-03-09T12:39:44.557Z,45
2017-03-09T12:40:44.587Z,45
2017-03-09T12:41:44.222Z,45
2017-03-09T12:42:44.624Z,45
2017-03-09T12:43:44.668Z,45
2017-03-09T12:44:44.267Z,45
2017-03-09T12:45:44.700Z,45
2017-03-09T12:46:44.705Z,45
2017-03-09T12:47:44.710Z,45
2017-03-09T12:48:44.734Z,40
2017-03-09T12:49:44.754Z,40
2017-03-09T12:50:44.393Z,40
2017-03-09T12:51:44.801Z,40
2017-03-09T12:52:44.803Z,40
2017-03-09T12:53:44.831Z,40
2017-03-09T12:54:44.853Z,45
2017-03-09T12:55:44.886Z,45
2017-03-09T12:56:44.879Z,45
2017-03-09T12:57:44.914Z,45
2017-03-09T12:58:44.925Z,40
2017-03-09T12:59:44.971Z,40
2017-03-09T13:00:44.956Z,40
2017-03-09T13:01:44.986Z,40
2017-03-09T13:02:45.011Z,45
2017-03-09T13:03:44.641Z,45
2017-03-09T13:04:45.048Z,40
2017-03-09T13:05:44.722Z,40
2017-03-09T13:06:44.696Z,40
2017-03-09T13:07:44.711Z,40
2017-03-09T13:08:45.144Z,40
2017-03-09T13:09:45.173Z,40
2017-03-09T13:10:44.767Z,40
2017-03-09T13:11:45.208Z,40
2017-03-09T13:12:45.212Z,40
2017-03-09T13:13:45.234Z,40
2017-03-09T13:14:45.260Z,40
2017-03-09T13:15:45.269Z,35
2017-03-09T13:16:45.297Z,30
2017-03-09T13:17:44.925Z,30
2017-03-09T13:18:44.945Z,30
2017-03-09T13:19:44.959Z,25
2017-03-09T13:20:45.422Z,25
2017-03-09T13:21:44.994Z,25
2017-03-09T13:22:45.416Z,25
2017-03-09T13:23:45.083Z,25
2017-03-09T13:24:45.121Z,25
2017-03-09T13:25:45.518Z,20
2017-03-09T13:26:45.530Z,20
2017-03-09T13:27:45.534Z,20
2017-03-09T13:28:45.654Z,20
2017-03-09T13:29:45.671Z,20
2017-03-09T13:30:45.671Z,20
2017-03-09T13:31:45.714Z,20
2017-03-09T13:32:45.709Z,20
2017-03-09T13:33:45.736Z,20
2017-03-09T13:34:45.768Z,25
2017-03-09T13:35:45.961Z,25
2017-03-09T13:36:45.591Z,25
2017-03-09T13:37:45.581Z,25
2017-03-09T13:38:46.011Z,25
2017-03-09T13:39:45.482Z,20
2017-03-09T13:40:45.887Z,20
2017-03-09T13:41:45.996Z,20
2017-03-09T13:42:45.414Z,15
2017-03-09T13:43:45.835Z,15
2017-03-09T13:44:45.887Z,15
2017-03-09T13:45:45.076Z,15
2017-03-09T13:46:45.910Z,15
2017-03-09T13:47:45.547Z,15
2017-03-09T13:48:45.537Z,15
2017-03-09T13:49:45.573Z,15
2017-03-09T13:50:46.100Z,15
2017-03-09T13:51:45.804Z,15
2017-03-09T13:52:46.217Z,10
2017-03-09T13:53:46.128Z,10
2017-03-09T13:54:46.139Z,10
2017-03-09T13:55:46.146Z,15
2017-03-09T13:56:46.239Z,15
2017-03-09T13:57:46.206Z,15
2017-03-09T13:58:46.224Z,20
2017-03-09T13:59:46.246Z,20
2017-03-09T14:00:46.277Z,25
2017-03-09T14:01:46.274Z,25
2017-03-09T14:02:46.296Z,25
2017-03-09T14:03:46.276Z,25
2017-03-09T14:04:46.270Z,25
2017-03-09T14:05:45.886Z,25
2017-03-09T14:06:46.304Z,20
2017-03-09T14:07:45.920Z,15
2017-03-09T14:08:45.950Z,20
2017-03-09T14:09:46.382Z,20
2017-03-09T14:10:46.386Z,20
2017-03-09T14:11:46.397Z,20
2017-03-09T14:12:46.435Z,15
2017-03-09T14:13:46.173Z,15
2017-03-09T14:14:46.463Z,15
2017-03-09T14:15:46.480Z,15
2017-03-09T14:16:46.518Z,15
2017-03-09T14:17:46.522Z,15
2017-03-09T14:18:46.157Z,15
2017-03-09T14:19:46.566Z,15
2017-03-09T14:20:46.200Z,20
2017-03-09T14:21:46.221Z,20
2017-03-09T14:22:46.638Z,20
2017-03-09T14:23:46.656Z,20
2017-03-09T14:24:46.330Z,20
2017-03-09T14:25:46.817Z,20
2017-03-09T14:26:46.424Z,20
2017-03-09T14:27:46.988Z,20
2017-03-09T14:28:46.421Z,20
2017-03-09T14:29:46.964Z,20
2017-03-09T14:30:46.993Z,20
2017-03-09T14:31:46.979Z,15
2017-03-09T14:32:46.999Z,15
2017-03-09T14:33:47.033Z,15